sensor_id;sensor_type;location;lat;lon;timestamp;pressure;altitude;pressure_sealevel;temperature;humidity
44138;BME280;29800;55.942;37.314;2023-04-01T00:01:02;98045.81;;;1.77;nan
44138;BME280;29800;55.942;37.314;2023-04-01T00:03:29;98039.56;;;1.77;nan
44138;BME280;29800;55.942;37.314;2023-04-01T00:05:58;98043.81;;;1.73;nan
44138;BME280;29800;55.942;37.314;2023-04-01T00:08:25;98051.31;;;1.71;nan
44138;BME280;29800;55.942;37.314;2023-04-01T00:10:52;98049.09;;;1.68;nan
44138;BME280;29800;55.942;37.314;2023-04-01T00:13:19;98043.94;;;1.66;nan
44138;BME280;29800;55.942;37.314;2023-04-01T00:15:46;98039.59;;;1.65;nan
44138;BME280;29800;55.942;37.314;2023-04-01T00:18:12;98049.78;;;1.63;nan
44138;BME280;29800;55.942;37.314;2023-04-01T00:20:43;98042.63;;;1.69;nan
44138;BME280;29800;55.942;37.314;2023-04-01T00:23:10;98044.75;;;1.67;nan
44138;BME280;29800;55.942;37.314;2023-04-01T00:25:36;98037.69;;;1.65;nan
44138;BME280;29800;55.942;37.314;2023-04-01T00:28:02;98036.06;;;1.64;nan
44138;BME280;29800;55.942;37.314;2023-04-01T00:30:28;98034.41;;;1.63;nan
44138;BME280;29800;55.942;37.314;2023-04-01T00:32:55;98036.88;;;1.65;nan
44138;BME280;29800;55.942;37.314;2023-04-01T00:35:21;98037.69;;;1.65;nan
44138;BME280;29800;55.942;37.314;2023-04-01T00:37:48;98035.84;;;1.66;nan
44138;BME280;29800;55.942;37.314;2023-04-01T00:40:45;98024.94;;;1.73;nan
44138;BME280;29800;55.942;37.314;2023-04-01T00:43:17;98030.22;;;1.68;nan
44138;BME280;29800;55.942;37.314;2023-04-01T00:45:45;98023.16;;;1.67;nan
44138;BME280;29800;55.942;37.314;2023-04-01T00:48:25;98026.81;;;1.72;nan
44138;BME280;29800;55.942;37.314;2023-04-01T00:51:01;98019.41;;;1.68;nan
44138;BME280;29800;55.942;37.314;2023-04-01T00:53:28;98021.31;;;1.79;nan
44138;BME280;29800;55.942;37.314;2023-04-01T00:56:00;98022.94;;;1.68;nan
44138;BME280;29800;55.942;37.314;2023-04-01T00:58:29;98024.44;;;1.64;nan
44138;BME280;29800;55.942;37.314;2023-04-01T01:00:58;98017.66;;;1.61;nan
44138;BME280;29800;55.942;37.314;2023-04-01T01:03:26;98014.38;;;1.59;nan
44138;BME280;29800;55.942;37.314;2023-04-01T01:10:57;98015.66;;;1.57;nan
44138;BME280;29800;55.942;37.314;2023-04-01T01:13:37;98023.50;;;1.58;nan
44138;BME280;29800;55.942;37.314;2023-04-01T01:16:27;98022.47;;;1.59;nan
44138;BME280;29800;55.942;37.314;2023-04-01T01:19:10;98027.25;;;1.57;nan
44138;BME280;29800;55.942;37.314;2023-04-01T01:24:30;98023.41;;;1.53;nan
44138;BME280;29800;55.942;37.314;2023-04-01T01:27:09;98020.47;;;1.55;nan
44138;BME280;29800;55.942;37.314;2023-04-01T01:29:45;98014.25;;;1.54;nan
44138;BME280;29800;55.942;37.314;2023-04-01T01:32:39;98023.50;;;1.58;nan
44138;BME280;29800;55.942;37.314;2023-04-01T01:38:00;98028.31;;;1.56;nan
44138;BME280;29800;55.942;37.314;2023-04-01T01:40:29;98027.47;;;1.56;nan
44138;BME280;29800;55.942;37.314;2023-04-01T01:43:00;98026.66;;;1.55;nan
44138;BME280;29800;55.942;37.314;2023-04-01T01:45:32;98031.72;;;1.52;nan
44138;BME280;29800;55.942;37.314;2023-04-01T01:47:59;98029.25;;;1.50;nan
44138;BME280;29800;55.942;37.314;2023-04-01T01:50:28;98029.47;;;1.49;nan
44138;BME280;29800;55.942;37.314;2023-04-01T01:53:06;98035.47;;;1.51;nan
44138;BME280;29800;55.942;37.314;2023-04-01T01:55:41;98025.13;;;1.47;nan
44138;BME280;29800;55.942;37.314;2023-04-01T01:58:16;98028.31;;;1.44;nan
44138;BME280;29800;55.942;37.314;2023-04-01T02:00:48;98020.00;;;1.46;nan
44138;BME280;29800;55.942;37.314;2023-04-01T02:03:17;98027.47;;;1.44;nan
44138;BME280;29800;55.942;37.314;2023-04-01T02:05:46;98025.63;;;1.44;nan
44138;BME280;29800;55.942;37.314;2023-04-01T02:08:18;98024.78;;;1.44;nan
44138;BME280;29800;55.942;37.314;2023-04-01T02:10:56;98023.97;;;1.43;nan
44138;BME280;29800;55.942;37.314;2023-04-01T02:13:33;98024.78;;;1.44;nan
44138;BME280;29800;55.942;37.314;2023-04-01T02:16:06;98026.09;;;1.41;nan
44138;BME280;29800;55.942;37.314;2023-04-01T02:18:36;98026.91;;;1.42;nan
44138;BME280;29800;55.942;37.314;2023-04-01T02:21:05;98026.66;;;1.43;nan
44138;BME280;29800;55.942;37.314;2023-04-01T02:23:35;98030.19;;;1.44;nan
44138;BME280;29800;55.942;37.314;2023-04-01T02:26:04;98032.63;;;1.45;nan
44138;BME280;29800;55.942;37.314;2023-04-01T02:28:32;98034.75;;;1.43;nan
44138;BME280;29800;55.942;37.314;2023-04-01T02:30:59;98036.88;;;1.41;nan
44138;BME280;29800;55.942;37.314;2023-04-01T02:33:28;98033.56;;;1.39;nan
44138;BME280;29800;55.942;37.314;2023-04-01T02:35:54;98033.81;;;1.38;nan
44138;BME280;29800;55.942;37.314;2023-04-01T02:38:21;98035.69;;;1.37;nan
44138;BME280;29800;55.942;37.314;2023-04-01T02:40:50;98040.25;;;1.37;nan
44138;BME280;29800;55.942;37.314;2023-04-01T02:43:17;98041.53;;;1.34;nan
44138;BME280;29800;55.942;37.314;2023-04-01T02:45:44;98046.69;;;1.36;nan
44138;BME280;29800;55.942;37.314;2023-04-01T02:48:10;98045.88;;;1.35;nan
44138;BME280;29800;55.942;37.314;2023-04-01T02:50:38;98048.94;;;1.39;nan
44138;BME280;29800;55.942;37.314;2023-04-01T02:53:05;98046.81;;;1.41;nan
44138;BME280;29800;55.942;37.314;2023-04-01T02:55:33;98048.00;;;1.45;nan
44138;BME280;29800;55.942;37.314;2023-04-01T02:57:59;98053.41;;;1.45;nan
44138;BME280;29800;55.942;37.314;2023-04-01T03:00:27;98053.41;;;1.45;nan
44138;BME280;29800;55.942;37.314;2023-04-01T03:02:53;98059.84;;;1.44;nan
44138;BME280;29800;55.942;37.314;2023-04-01T03:05:20;98059.25;;;1.42;nan
44138;BME280;29800;55.942;37.314;2023-04-01T03:07:46;98057.59;;;1.41;nan
44138;BME280;29800;55.942;37.314;2023-04-01T03:10:13;98055.13;;;1.39;nan
44138;BME280;29800;55.942;37.314;2023-04-01T03:12:39;98069.69;;;1.38;nan
44138;BME280;29800;55.942;37.314;2023-04-01T03:15:06;98064.06;;;1.40;nan
44138;BME280;29800;55.942;37.314;2023-04-01T03:17:33;98057.59;;;1.41;nan
44138;BME280;29800;55.942;37.314;2023-04-01T03:19:59;98068.38;;;1.41;nan
44138;BME280;29800;55.942;37.314;2023-04-01T03:22:25;98057.59;;;1.41;nan
44138;BME280;29800;55.942;37.314;2023-04-01T03:24:51;98059.25;;;1.42;nan
44138;BME280;29800;55.942;37.314;2023-04-01T03:27:17;98060.28;;;1.41;nan
44138;BME280;29800;55.942;37.314;2023-04-01T03:29:44;98059.59;;;1.45;nan
44138;BME280;29800;55.942;37.314;2023-04-01T03:32:11;98057.75;;;1.58;nan
44138;BME280;29800;55.942;37.314;2023-04-01T03:34:38;98066.44;;;1.72;nan
44138;BME280;29800;55.942;37.314;2023-04-01T03:37:04;98071.84;;;1.83;nan
44138;BME280;29800;55.942;37.314;2023-04-01T03:39:31;98074.56;;;1.95;nan
44138;BME280;29800;55.942;37.314;2023-04-01T03:41:58;98074.31;;;2.09;nan
44138;BME280;29800;55.942;37.314;2023-04-01T03:44:24;98077.47;;;2.17;nan
44138;BME280;29800;55.942;37.314;2023-04-01T03:46:53;98077.22;;;2.31;nan
44138;BME280;29800;55.942;37.314;2023-04-01T03:49:19;98080.41;;;2.39;nan
44138;BME280;29800;55.942;37.314;2023-04-01T03:51:45;98083.06;;;2.51;nan
44138;BME280;29800;55.942;37.314;2023-04-01T03:54:12;98083.59;;;2.65;nan
44138;BME280;29800;55.942;37.314;2023-04-01T03:56:38;98086.25;;;2.77;nan
44138;BME280;29800;55.942;37.314;2023-04-01T03:59:06;98091.06;;;2.87;nan
44138;BME280;29800;55.942;37.314;2023-04-01T04:01:33;98098.78;;;2.95;nan
44138;BME280;29800;55.942;37.314;2023-04-01T04:03:59;98094.88;;;3.03;nan
44138;BME280;29800;55.942;37.314;2023-04-01T04:06:27;98093.44;;;3.12;nan
44138;BME280;29800;55.942;37.314;2023-04-01T04:08:53;98094.91;;;3.20;nan
44138;BME280;29800;55.942;37.314;2023-04-01T04:11:22;98101.81;;;3.27;nan
44138;BME280;29800;55.942;37.314;2023-04-01T04:13:50;98101.69;;;3.34;nan
44138;BME280;29800;55.942;37.314;2023-04-01T04:16:18;98105.63;;;3.43;nan
44138;BME280;29800;55.942;37.314;2023-04-01T04:18:49;98101.72;;;3.51;nan
44138;BME280;29800;55.942;37.314;2023-04-01T04:21:16;98105.66;;;3.60;nan
44138;BME280;29800;55.942;37.314;2023-04-01T04:23:43;98110.09;;;3.66;nan
44138;BME280;29800;55.942;37.314;2023-04-01T04:26:13;98108.88;;;3.74;nan
44138;BME280;29800;55.942;37.314;2023-04-01T04:28:41;98115.19;;;3.80;nan
44138;BME280;29800;55.942;37.314;2023-04-01T04:31:07;98116.66;;;3.88;nan
44138;BME280;29800;55.942;37.314;2023-04-01T04:33:35;98119.69;;;3.91;nan
44138;BME280;29800;55.942;37.314;2023-04-01T04:36:03;98118.72;;;3.97;nan
44138;BME280;29800;55.942;37.314;2023-04-01T04:38:29;98118.47;;;3.99;nan
44138;BME280;29800;55.942;37.314;2023-04-01T04:40:56;98119.59;;;4.03;nan
44138;BME280;29800;55.942;37.314;2023-04-01T04:43:22;98128.41;;;4.10;nan
44138;BME280;29800;55.942;37.314;2023-04-01T04:45:50;98126.81;;;4.14;nan
44138;BME280;29800;55.942;37.314;2023-04-01T04:48:17;98123.63;;;4.17;nan
44138;BME280;29800;55.942;37.314;2023-04-01T04:50:50;98134.03;;;4.26;nan
44138;BME280;29800;55.942;37.314;2023-04-01T04:53:18;98135.44;;;4.28;nan
44138;BME280;29800;55.942;37.314;2023-04-01T04:55:47;98135.25;;;4.35;nan
44138;BME280;29800;55.942;37.314;2023-04-01T04:58:26;98136.63;;;4.37;nan
44138;BME280;29800;55.942;37.314;2023-04-01T05:00:52;98146.97;;;4.40;nan
44138;BME280;29800;55.942;37.314;2023-04-01T05:03:24;98138.59;;;4.42;nan
44138;BME280;29800;55.942;37.314;2023-04-01T05:05:52;98142.22;;;4.48;nan
44138;BME280;29800;55.942;37.314;2023-04-01T05:08:20;98145.75;;;4.48;nan
44138;BME280;29800;55.942;37.314;2023-04-01T05:10:46;98141.44;;;4.52;nan
44138;BME280;29800;55.942;37.314;2023-04-01T05:13:13;98143.16;;;4.58;nan
44138;BME280;29800;55.942;37.314;2023-04-01T05:15:40;98149.25;;;4.66;nan
44138;BME280;29800;55.942;37.314;2023-04-01T05:18:07;98146.53;;;4.66;nan
44138;BME280;29800;55.942;37.314;2023-04-01T05:20:34;98147.59;;;4.65;nan
44138;BME280;29800;55.942;37.314;2023-04-01T05:23:00;98154.97;;;4.69;nan
44138;BME280;29800;55.942;37.314;2023-04-01T05:25:27;98159.66;;;4.74;nan
44138;BME280;29800;55.942;37.314;2023-04-01T05:27:54;98158.06;;;4.78;nan
44138;BME280;29800;55.942;37.314;2023-04-01T05:30:20;98163.75;;;4.76;nan
44138;BME280;29800;55.942;37.314;2023-04-01T05:32:58;98167.91;;;4.84;nan
44138;BME280;29800;55.942;37.314;2023-04-01T05:35:24;98163.63;;;4.88;nan
44138;BME280;29800;55.942;37.314;2023-04-01T05:37:50;98163.06;;;4.86;nan
44138;BME280;29800;55.942;37.314;2023-04-01T05:40:17;98162.31;;;4.91;nan
44138;BME280;29800;55.942;37.314;2023-04-01T05:42:44;98163.44;;;4.95;nan
44138;BME280;29800;55.942;37.314;2023-04-01T05:45:10;98166.38;;;4.93;nan
44138;BME280;29800;55.942;37.314;2023-04-01T05:47:55;98161.88;;;4.99;nan
44138;BME280;29800;55.942;37.314;2023-04-01T05:50:22;98158.97;;;5.06;nan
44138;BME280;29800;55.942;37.314;2023-04-01T05:52:48;98159.78;;;5.06;nan
44138;BME280;29800;55.942;37.314;2023-04-01T05:55:15;98160.09;;;5.10;nan
44138;BME280;29800;55.942;37.314;2023-04-01T05:57:42;98163.88;;;5.09;nan
44138;BME280;29800;55.942;37.314;2023-04-01T06:00:09;98159.78;;;5.06;nan
44138;BME280;29800;55.942;37.314;2023-04-01T06:02:44;98160.09;;;5.10;nan
44138;BME280;29800;55.942;37.314;2023-04-01T06:05:15;98169.81;;;5.06;nan
44138;BME280;29800;55.942;37.314;2023-04-01T06:07:42;98173.28;;;5.01;nan
44138;BME280;29800;55.942;37.314;2023-04-01T06:10:15;98171.59;;;5.17;nan
44138;BME280;29800;55.942;37.314;2023-04-01T06:15:50;98179.69;;;5.39;nan
44138;BME280;29800;55.942;37.314;2023-04-01T06:39:34;98195.59;;;4.13;nan
44138;BME280;29800;55.942;37.314;2023-04-01T06:51:45;98209.50;;;3.71;nan
44138;BME280;29800;55.942;37.314;2023-04-01T06:55:00;98211.03;;;3.67;nan
44138;BME280;29800;55.942;37.314;2023-04-01T06:57:58;98219.53;;;3.59;nan
44138;BME280;29800;55.942;37.314;2023-04-01T07:00:32;98225.09;;;3.52;nan
44138;BME280;29800;55.942;37.314;2023-04-01T07:05:39;98222.53;;;3.45;nan
44138;BME280;29800;55.942;37.314;2023-04-01T07:08:09;98220.38;;;3.47;nan
44138;BME280;29800;55.942;37.314;2023-04-01T07:13:58;98217.44;;;3.49;nan
44138;BME280;29800;55.942;37.314;2023-04-01T07:16:39;98218.00;;;3.63;nan
44138;BME280;29800;55.942;37.314;2023-04-01T07:22:04;98226.88;;;3.75;nan
44138;BME280;29800;55.942;37.314;2023-04-01T07:24:51;98224.16;;;3.75;nan
44138;BME280;29800;55.942;37.314;2023-04-01T07:27:19;98219.34;;;3.77;nan
44138;BME280;29800;55.942;37.314;2023-04-01T07:29:45;98214.50;;;3.79;nan
44138;BME280;29800;55.942;37.314;2023-04-01T07:37:57;98218.09;;;4.14;nan
44138;BME280;29800;55.942;37.314;2023-04-01T07:54:20;98237.88;;;4.48;nan
44138;BME280;29800;55.942;37.314;2023-04-01T08:07:40;98239.97;;;4.80;nan
44138;BME280;29800;55.942;37.314;2023-04-01T08:14:02;98248.41;;;5.01;nan
44138;BME280;29800;55.942;37.314;2023-04-01T08:17:07;98253.38;;;5.09;nan
44138;BME280;29800;55.942;37.314;2023-04-01T08:22:27;98257.94;;;5.25;nan
44138;BME280;29800;55.942;37.314;2023-04-01T08:25:04;98253.78;;;5.40;nan
44138;BME280;29800;55.942;37.314;2023-04-01T08:27:44;98248.22;;;5.51;nan
44138;BME280;29800;55.942;37.314;2023-04-01T08:30:21;98245.47;;;5.74;nan
44138;BME280;29800;55.942;37.314;2023-04-01T08:33:15;98254.44;;;5.96;nan
44138;BME280;29800;55.942;37.314;2023-04-01T08:36:32;98249.72;;;6.14;nan
44138;BME280;29800;55.942;37.314;2023-04-01T08:38:59;98254.38;;;6.51;nan
44138;BME280;29800;55.942;37.314;2023-04-01T08:56:50;98254.38;;;8.25;nan
44138;BME280;29800;55.942;37.314;2023-04-01T09:00:10;98254.97;;;8.53;nan
44138;BME280;29800;55.942;37.314;2023-04-01T09:06:06;98247.03;;;8.77;nan
44138;BME280;29800;55.942;37.314;2023-04-01T09:12:24;98251.03;;;9.26;nan
44138;BME280;29800;55.942;37.314;2023-04-01T09:18:12;98271.22;;;9.30;nan
44138;BME280;29800;55.942;37.314;2023-04-01T09:35:20;98274.28;;;8.97;nan
44138;BME280;29800;55.942;37.314;2023-04-01T09:38:50;98280.53;;;9.18;nan
44138;BME280;29800;55.942;37.314;2023-04-01T09:49:09;98289.31;;;8.74;nan
44138;BME280;29800;55.942;37.314;2023-04-01T09:51:52;98287.69;;;8.94;nan
44138;BME280;29800;55.942;37.314;2023-04-01T10:00:20;98299.88;;;9.27;nan
44138;BME280;29800;55.942;37.314;2023-04-01T10:03:46;98303.50;;;8.97;nan
44138;BME280;29800;55.942;37.314;2023-04-01T10:09:22;98304.84;;;9.05;nan
44138;BME280;29800;55.942;37.314;2023-04-01T10:29:49;98321.78;;;8.71;nan
44138;BME280;29800;55.942;37.314;2023-04-01T10:45:15;98324.25;;;8.82;nan
44138;BME280;29800;55.942;37.314;2023-04-01T11:03:00;98328.84;;;9.23;nan
44138;BME280;29800;55.942;37.314;2023-04-01T11:06:30;98329.88;;;9.53;nan
44138;BME280;29800;55.942;37.314;2023-04-01T11:32:31;98333.47;;;9.23;nan
44138;BME280;29800;55.942;37.314;2023-04-01T11:35:19;98330.19;;;9.26;nan
44138;BME280;29800;55.942;37.314;2023-04-01T11:40:47;98341.41;;;9.09;nan
44138;BME280;29800;55.942;37.314;2023-04-01T11:58:42;98343.63;;;8.81;nan
44138;BME280;29800;55.942;37.314;2023-04-01T12:04:06;98347.97;;;8.77;nan
44138;BME280;29800;55.942;37.314;2023-04-01T12:09:47;98343.63;;;8.81;nan
44138;BME280;29800;55.942;37.314;2023-04-01T12:20:57;98347.97;;;8.77;nan
44138;BME280;29800;55.942;37.314;2023-04-01T12:24:03;98353.94;;;8.74;nan
44138;BME280;29800;55.942;37.314;2023-04-01T12:37:49;98367.03;;;8.51;nan
44138;BME280;29800;55.942;37.314;2023-04-01T12:40:37;98370.84;;;8.45;nan
44138;BME280;29800;55.942;37.314;2023-04-01T12:43:35;98363.97;;;8.42;nan
44138;BME280;29800;55.942;37.314;2023-04-01T12:54:27;98370.22;;;8.27;nan
44138;BME280;29800;55.942;37.314;2023-04-01T13:09:31;98380.28;;;8.22;nan
44138;BME280;29800;55.942;37.314;2023-04-01T13:24:05;98403.66;;;8.07;nan
44138;BME280;29800;55.942;37.314;2023-04-01T13:29:36;98397.97;;;8.09;nan
44138;BME280;29800;55.942;37.314;2023-04-01T13:37:46;98400.06;;;7.97;nan
44138;BME280;29800;55.942;37.314;2023-04-01T13:43:41;98409.91;;;7.98;nan
44138;BME280;29800;55.942;37.314;2023-04-01T13:46:12;98417.19;;;7.87;nan
44138;BME280;29800;55.942;37.314;2023-04-01T13:54:32;98431.13;;;7.90;nan
44138;BME280;29800;55.942;37.314;2023-04-01T13:57:51;98434.91;;;7.89;nan
44138;BME280;29800;55.942;37.314;2023-04-01T14:03:50;98440.09;;;7.91;nan
44138;BME280;29800;55.942;37.314;2023-04-01T14:12:17;98438.19;;;7.91;nan
44138;BME280;29800;55.942;37.314;2023-04-01T14:20:27;98441.97;;;7.85;nan
44138;BME280;29800;55.942;37.314;2023-04-01T14:28:56;98451.72;;;7.71;nan
44138;BME280;29800;55.942;37.314;2023-04-01T14:31:34;98448.63;;;7.62;nan
44138;BME280;29800;55.942;37.314;2023-04-01T14:37:23;98455.97;;;7.57;nan
44138;BME280;29800;55.942;37.314;2023-04-01T14:43:04;98473.69;;;7.59;nan
44138;BME280;29800;55.942;37.314;2023-04-01T14:50:52;98475.94;;;7.35;nan
44138;BME280;29800;55.942;37.314;2023-04-01T14:53:26;98485.16;;;7.29;nan
44138;BME280;29800;55.942;37.314;2023-04-01T14:55:57;98482.69;;;7.27;nan
44138;BME280;29800;55.942;37.314;2023-04-01T14:58:38;98491.66;;;7.28;nan
44138;BME280;29800;55.942;37.314;2023-04-01T15:01:09;98489.47;;;7.25;nan
44138;BME280;29800;55.942;37.314;2023-04-01T15:04:03;98493.06;;;7.30;nan
44138;BME280;29800;55.942;37.314;2023-04-01T15:07:00;98496.03;;;7.29;nan
44138;BME280;29800;55.942;37.314;2023-04-01T15:18:03;98506.88;;;7.24;nan
44138;BME280;29800;55.942;37.314;2023-04-01T15:20:56;98499.28;;;7.26;nan
44138;BME280;29800;55.942;37.314;2023-04-01T15:23:37;98512.84;;;7.21;nan
44138;BME280;29800;55.942;37.314;2023-04-01T15:50:54;98551.97;;;6.87;nan
44138;BME280;29800;55.942;37.314;2023-04-01T16:02:12;98567.78;;;6.68;nan
44138;BME280;29800;55.942;37.314;2023-04-01T16:04:48;98573.47;;;6.67;nan
44138;BME280;29800;55.942;37.314;2023-04-01T16:13:30;98580.88;;;6.71;nan
44138;BME280;29800;55.942;37.314;2023-04-01T16:16:16;98581.69;;;6.72;nan
44138;BME280;29800;55.942;37.314;2023-04-01T16:21:27;98585.25;;;6.72;nan
44138;BME280;29800;55.942;37.314;2023-04-01T16:30:47;98590.09;;;6.70;nan
44138;BME280;29800;55.942;37.314;2023-04-01T16:36:40;98599.66;;;6.73;nan
44138;BME280;29800;55.942;37.314;2023-04-01T16:41:41;98593.84;;;6.64;nan
44138;BME280;29800;55.942;37.314;2023-04-01T16:44:19;98598.19;;;6.65;nan
44138;BME280;29800;55.942;37.314;2023-04-01T16:46:50;98609.88;;;6.66;nan
44138;BME280;29800;55.942;37.314;2023-04-01T16:49:29;98600.16;;;6.70;nan
44138;BME280;29800;55.942;37.314;2023-04-01T16:52:34;98599.41;;;6.74;nan
44138;BME280;29800;55.942;37.314;2023-04-01T16:55:19;98608.38;;;6.75;nan
44138;BME280;29800;55.942;37.314;2023-04-01T16:57:57;98602.38;;;6.73;nan
44138;BME280;29800;55.942;37.314;2023-04-01T17:11:18;98609.38;;;6.69;nan
44138;BME280;29800;55.942;37.314;2023-04-01T17:13:56;98605.47;;;6.59;nan
44138;BME280;29800;55.942;37.314;2023-04-01T17:27:51;98619.81;;;6.55;nan
44138;BME280;29800;55.942;37.314;2023-04-01T17:30:28;98617.84;;;6.50;nan
44138;BME280;29800;55.942;37.314;2023-04-01T17:33:12;98619.16;;;6.48;nan
44138;BME280;29800;55.942;37.314;2023-04-01T17:42:14;98623.16;;;6.62;nan
44138;BME280;29800;55.942;37.314;2023-04-01T17:52:55;98632.16;;;6.62;nan
44138;BME280;29800;55.942;37.314;2023-04-01T17:55:43;98638.41;;;6.63;nan
44138;BME280;29800;55.942;37.314;2023-04-01T17:58:40;98624.56;;;6.65;nan
44138;BME280;29800;55.942;37.314;2023-04-01T18:07:18;98622.59;;;6.60;nan
44138;BME280;29800;55.942;37.314;2023-04-01T18:12:42;98638.28;;;6.53;nan
44138;BME280;29800;55.942;37.314;2023-04-01T18:15:23;98645.09;;;6.55;nan
44138;BME280;29800;55.942;37.314;2023-04-01T18:21:07;98658.00;;;6.65;nan
44138;BME280;29800;55.942;37.314;2023-04-01T18:24:02;98652.88;;;6.69;nan
44138;BME280;29800;55.942;37.314;2023-04-01T18:26:35;98660.97;;;6.63;nan
44138;BME280;29800;55.942;37.314;2023-04-01T18:29:26;98666.22;;;6.70;nan
44138;BME280;29800;55.942;37.314;2023-04-01T18:37:51;98669.53;;;6.72;nan
44138;BME280;29800;55.942;37.314;2023-04-01T18:40:37;98678.31;;;6.79;nan
44138;BME280;29800;55.942;37.314;2023-04-01T18:46:19;98671.28;;;6.84;nan
44138;BME280;29800;55.942;37.314;2023-04-01T18:54:31;98690.25;;;6.95;nan
44138;BME280;29800;55.942;37.314;2023-04-01T18:57:07;98688.28;;;6.91;nan
44138;BME280;29800;55.942;37.314;2023-04-01T18:59:46;98683.09;;;6.89;nan
44138;BME280;29800;55.942;37.314;2023-04-01T19:03:02;98690.56;;;6.99;nan
44138;BME280;29800;55.942;37.314;2023-04-01T19:05:35;98695.88;;;6.89;nan
44138;BME280;29800;55.942;37.314;2023-04-01T19:08:27;98698.16;;;6.97;nan
44138;BME280;29800;55.942;37.314;2023-04-01T19:13:56;98704.22;;;7.04;nan
44138;BME280;29800;55.942;37.314;2023-04-01T19:21:58;98705.16;;;6.93;nan
44138;BME280;29800;55.942;37.314;2023-04-01T19:27:24;98710.66;;;6.98;nan
44138;BME280;29800;55.942;37.314;2023-04-01T19:30:15;98706.31;;;6.97;nan
44138;BME280;29800;55.942;37.314;2023-04-01T19:33:18;98711.75;;;6.97;nan
44138;BME280;29800;55.942;37.314;2023-04-01T19:38:38;98714.38;;;6.92;nan
44138;BME280;29800;55.942;37.314;2023-04-01T19:41:24;98718.19;;;6.91;nan
44138;BME280;29800;55.942;37.314;2023-04-01T19:59:26;98722.22;;;7.05;nan
44138;BME280;29800;55.942;37.314;2023-04-01T20:01:34;98725.69;;;7.23;nan
44138;BME280;29800;55.942;37.314;2023-04-01T20:04:08;98724.69;;;7.07;nan
44138;BME280;29800;55.942;37.314;2023-04-01T20:06:57;98727.56;;;7.00;nan
44138;BME280;29800;55.942;37.314;2023-04-01T20:14:54;98724.09;;;7.05;nan
44138;BME280;29800;55.942;37.314;2023-04-01T20:17:44;98711.94;;;7.12;nan
44138;BME280;29800;55.942;37.314;2023-04-01T20:30:34;98717.09;;;7.09;nan
44138;BME280;29800;55.942;37.314;2023-04-01T20:41:37;98710.34;;;7.16;nan
44138;BME280;29800;55.942;37.314;2023-04-01T20:44:14;98714.22;;;7.21;nan
44138;BME280;29800;55.942;37.314;2023-04-01T20:47:02;98703.59;;;7.19;nan
44138;BME280;29800;55.942;37.314;2023-04-01T20:52:32;98715.53;;;7.18;nan
44138;BME280;29800;55.942;37.314;2023-04-01T21:00:36;98722.47;;;7.26;nan
44138;BME280;29800;55.942;37.314;2023-04-01T21:06:10;98741.44;;;7.21;nan
44138;BME280;29800;55.942;37.314;2023-04-01T21:16:51;98745.25;;;7.42;nan
44138;BME280;29800;55.942;37.314;2023-04-01T21:47:08;98745.72;;;7.61;nan
44138;BME280;29800;55.942;37.314;2023-04-01T21:52:47;98750.31;;;7.55;nan
44138;BME280;29800;55.942;37.314;2023-04-01T22:03:38;98756.75;;;7.71;nan
44138;BME280;29800;55.942;37.314;2023-04-01T22:09:18;98753.44;;;7.69;nan
44138;BME280;29800;55.942;37.314;2023-04-01T22:12:20;98751.72;;;7.85;nan
44138;BME280;29800;55.942;37.314;2023-04-01T22:15:11;98758.06;;;7.90;nan
44138;BME280;29800;55.942;37.314;2023-04-01T22:20:31;98775.28;;;7.96;nan
44138;BME280;29800;55.942;37.314;2023-04-01T22:23:25;98766.09;;;8.02;nan
44138;BME280;29800;55.942;37.314;2023-04-01T22:26:14;98768.50;;;7.99;nan
44138;BME280;29800;55.942;37.314;2023-04-01T22:29:03;98768.50;;;7.99;nan
44138;BME280;29800;55.942;37.314;2023-04-01T22:31:49;98760.38;;;8.04;nan
44138;BME280;29800;55.942;37.314;2023-04-01T22:34:37;98752.75;;;8.06;nan
44138;BME280;29800;55.942;37.314;2023-04-01T22:39:50;98757.28;;;7.95;nan
44138;BME280;29800;55.942;37.314;2023-04-01T22:45:21;98762.34;;;8.08;nan
44138;BME280;29800;55.942;37.314;2023-04-01T22:53:47;98757.41;;;8.05;nan
44138;BME280;29800;55.942;37.314;2023-04-01T22:56:23;98762.53;;;8.02;nan
44138;BME280;29800;55.942;37.314;2023-04-01T22:59:02;98766.38;;;8.06;nan
44138;BME280;29800;55.942;37.314;2023-04-01T23:01:36;98775.13;;;8.08;nan
44138;BME280;29800;55.942;37.314;2023-04-01T23:04:05;98770.66;;;7.97;nan
44138;BME280;29800;55.942;37.314;2023-04-01T23:06:38;98770.97;;;8.00;nan
44138;BME280;29800;55.942;37.314;2023-04-01T23:09:33;98772.41;;;8.08;nan
44138;BME280;29800;55.942;37.314;2023-04-01T23:12:07;98765.78;;;7.99;nan
44138;BME280;29800;55.942;37.314;2023-04-01T23:14:43;98773.91;;;7.94;nan
44138;BME280;29800;55.942;37.314;2023-04-01T23:31:34;98776.09;;;7.97;nan
44138;BME280;29800;55.942;37.314;2023-04-01T23:36:44;98775.38;;;7.79;nan
44138;BME280;29800;55.942;37.314;2023-04-01T23:39:22;98777.59;;;7.82;nan
44138;BME280;29800;55.942;37.314;2023-04-01T23:41:55;98776.44;;;7.78;nan
44138;BME280;29800;55.942;37.314;2023-04-01T23:44:24;98778.56;;;7.71;nan
44138;BME280;29800;55.942;37.314;2023-04-01T23:46:51;98779.06;;;7.68;nan
44138;BME280;29800;55.942;37.314;2023-04-01T23:49:21;98785.38;;;7.73;nan
44138;BME280;29800;55.942;37.314;2023-04-01T23:51:53;98772.59;;;7.74;nan
44138;BME280;29800;55.942;37.314;2023-04-01T23:56:57;98781.03;;;7.72;nan
44138;BME280;29800;55.942;37.314;2023-04-01T23:59:29;98779.94;;;7.73;nan
